createdAt,value
2018-09-30T00:01:17.417Z,91.84
2018-09-30T00:03:46.115Z,92.17
2018-09-30T00:06:14.683Z,92.35
2018-09-30T00:08:43.226Z,91.84
2018-09-30T00:11:11.782Z,92.73
2018-09-30T00:13:40.321Z,92.77
2018-09-30T00:16:09.101Z,92.54
2018-09-30T00:18:37.707Z,92.75
2018-09-30T00:21:06.294Z,92.70
2018-09-30T00:23:39.946Z,92.38
2018-09-30T00:26:14.060Z,92.53
2018-09-30T00:28:42.658Z,91.90
2018-09-30T00:31:11.237Z,91.97
2018-09-30T00:33:45.207Z,92.20
2018-09-30T00:36:13.814Z,91.10
2018-09-30T00:38:42.554Z,90.13
2018-09-30T00:41:11.098Z,89.57
2018-09-30T00:43:39.949Z,89.60
2018-09-30T00:46:09.022Z,89.35
2018-09-30T00:48:38.547Z,89.62
2018-09-30T00:51:07.119Z,89.63
2018-09-30T00:53:36.907Z,89.31
2018-09-30T00:56:05.489Z,89.03
2018-09-30T00:58:34.069Z,88.50
2018-09-30T01:01:02.892Z,88.54
2018-09-30T01:03:31.489Z,88.93
2018-09-30T01:06:08.652Z,88.72
2018-09-30T01:08:40.986Z,89.28
2018-09-30T01:11:13.483Z,89.37
2018-09-30T01:13:48.416Z,90.08
2018-09-30T01:16:20.969Z,89.87
2018-09-30T01:18:53.646Z,89.87
2018-09-30T01:21:23.943Z,89.72
2018-09-30T01:23:53.981Z,89.83
2018-09-30T01:26:24.903Z,89.88
2018-09-30T01:29:01.906Z,91.06
2018-09-30T01:31:32.769Z,90.61
2018-09-30T01:34:05.664Z,91.33
2018-09-30T01:36:39.741Z,91.17
2018-09-30T01:39:10.213Z,91.34
2018-09-30T01:41:41.280Z,90.99
2018-09-30T01:44:09.947Z,91.36
2018-09-30T01:46:39.340Z,90.63
2018-09-30T01:49:07.887Z,91.34
2018-09-30T01:51:36.813Z,91.41
2018-09-30T01:54:05.353Z,91.69
2018-09-30T01:56:33.928Z,91.32
2018-09-30T01:59:02.651Z,91.73
2018-09-30T02:01:31.346Z,91.32
2018-09-30T02:03:59.959Z,91.38
2018-09-30T02:06:28.492Z,91.74
2018-09-30T02:08:57.071Z,91.14
2018-09-30T02:11:25.661Z,91.07
2018-09-30T02:13:54.234Z,90.98
2018-09-30T02:16:22.973Z,91.87
2018-09-30T02:18:51.894Z,92.04
2018-09-30T02:21:20.431Z,91.14
2018-09-30T02:23:49.035Z,91.86
2018-09-30T02:26:17.634Z,92.04
2018-09-30T02:28:46.225Z,92.32
2018-09-30T02:31:14.792Z,92.32
2018-09-30T02:33:43.514Z,91.64
2018-09-30T02:36:12.131Z,92.17
2018-09-30T02:38:40.694Z,92.16
2018-09-30T02:41:09.780Z,92.33
2018-09-30T02:43:38.363Z,92.00
2018-09-30T02:46:06.905Z,91.92
2018-09-30T02:48:35.501Z,92.39
2018-09-30T02:51:04.136Z,92.46
2018-09-30T02:53:33.537Z,92.07
2018-09-30T02:56:02.333Z,92.64
2018-09-30T02:58:30.982Z,91.72
2018-09-30T03:00:59.566Z,91.64
2018-09-30T03:03:28.164Z,91.73
2018-09-30T03:05:56.838Z,92.28
2018-09-30T03:09:31.774Z,92.20
2018-09-30T03:12:00.350Z,91.97
2018-09-30T03:14:28.934Z,91.88
2018-09-30T03:16:57.533Z,91.84
2018-09-30T03:19:26.441Z,92.14
2018-09-30T03:21:55.089Z,91.67
2018-09-30T03:24:23.863Z,91.76
2018-09-30T03:26:52.424Z,92.00
2018-09-30T03:29:21.027Z,91.83
2018-09-30T03:31:49.590Z,92.38
2018-09-30T03:34:18.135Z,92.14
2018-09-30T03:36:46.697Z,92.76
2018-09-30T03:39:15.403Z,92.73
2018-09-30T03:41:44.090Z,92.31
2018-09-30T03:44:12.642Z,92.01
2018-09-30T03:46:41.223Z,91.76
2018-09-30T03:49:10.151Z,92.16
2018-09-30T03:51:38.870Z,92.22
2018-09-30T03:54:07.500Z,92.36
2018-09-30T03:56:36.108Z,92.12
2018-09-30T03:59:04.958Z,91.44
2018-09-30T04:01:33.517Z,91.39
2018-09-30T04:04:02.045Z,92.41
2018-09-30T04:06:30.661Z,92.39
2018-09-30T04:08:59.250Z,91.74
2018-09-30T04:11:27.788Z,91.87
2018-09-30T04:13:56.479Z,90.93
2018-09-30T04:16:25.104Z,91.97
2018-09-30T04:18:53.713Z,91.37
2018-09-30T04:21:22.297Z,91.35
2018-09-30T04:23:55.186Z,91.78
2018-09-30T04:26:23.727Z,91.26
2018-09-30T04:28:52.306Z,91.34
2018-09-30T04:31:20.837Z,91.30
2018-09-30T04:33:49.439Z,91.73
2018-09-30T04:36:18.076Z,91.55
2018-09-30T04:38:46.785Z,91.87
2018-09-30T04:41:15.398Z,92.02
2018-09-30T04:43:43.955Z,92.68
2018-09-30T04:46:12.498Z,92.24
2018-09-30T04:48:41.073Z,92.97
2018-09-30T04:51:09.657Z,92.79
2018-09-30T04:53:38.446Z,92.92
2018-09-30T04:56:07.232Z,92.29
2018-09-30T04:58:36.239Z,92.01
2018-09-30T05:01:04.877Z,92.00
2018-09-30T05:03:33.435Z,91.29
2018-09-30T05:06:02.002Z,90.57
2018-09-30T05:08:30.593Z,90.47
2018-09-30T05:10:59.210Z,89.98
2018-09-30T05:13:28.043Z,89.84
2018-09-30T05:15:56.732Z,88.83
2018-09-30T05:18:25.440Z,88.65
2018-09-30T05:20:54.009Z,88.80
2018-09-30T05:23:22.566Z,88.48
2018-09-30T05:25:51.150Z,88.29
2018-09-30T05:28:19.686Z,87.11
2018-09-30T05:30:48.802Z,87.21
2018-09-30T05:33:17.565Z,86.69
2018-09-30T05:35:46.147Z,86.19
2018-09-30T05:38:14.734Z,85.69
2018-09-30T05:40:43.277Z,85.84
2018-09-30T05:43:11.867Z,84.91
2018-09-30T05:45:40.438Z,84.69
2018-09-30T05:48:09.154Z,83.15
2018-09-30T05:50:37.917Z,82.75
2018-09-30T05:53:06.688Z,81.91
2018-09-30T05:55:35.215Z,82.08
2018-09-30T05:58:04.163Z,78.58
2018-09-30T06:00:32.907Z,73.69
2018-09-30T06:03:01.751Z,68.62
2018-09-30T06:05:30.531Z,66.21
2018-09-30T06:07:59.886Z,63.34
2018-09-30T06:10:29.006Z,59.62
2018-09-30T06:12:57.704Z,56.90
2018-09-30T06:15:26.324Z,56.16
2018-09-30T06:17:54.884Z,54.85
2018-09-30T06:20:23.455Z,52.66
2018-09-30T06:22:51.993Z,51.45
2018-09-30T06:25:20.749Z,50.62
2018-09-30T06:27:49.391Z,49.99
2018-09-30T06:30:17.941Z,48.52
2018-09-30T06:32:46.563Z,46.89
2018-09-30T06:35:15.154Z,46.37
2018-09-30T06:37:43.742Z,46.99
2018-09-30T06:40:12.372Z,48.47
2018-09-30T06:42:41.817Z,47.16
2018-09-30T06:45:10.604Z,46.92
2018-09-30T06:47:39.358Z,45.48
2018-09-30T06:50:07.943Z,45.30
2018-09-30T06:52:36.594Z,44.18
2018-09-30T06:55:05.442Z,44.07
2018-09-30T06:57:34.050Z,44.05
2018-09-30T07:00:02.612Z,44.14
2018-09-30T07:02:31.430Z,45.46
2018-09-30T07:05:00.357Z,46.36
2018-09-30T07:07:29.257Z,45.54
2018-09-30T07:09:57.902Z,45.73
2018-09-30T07:12:26.550Z,45.10
2018-09-30T07:14:55.320Z,46.08
2018-09-30T07:17:24.024Z,47.51
2018-09-30T07:19:52.878Z,48.24
2018-09-30T07:22:21.662Z,48.50
2018-09-30T07:24:50.991Z,46.78
2018-09-30T07:27:19.728Z,45.76
2018-09-30T07:29:49.055Z,43.09
2018-09-30T07:32:18.078Z,42.54
2018-09-30T07:34:46.726Z,40.01
2018-09-30T07:37:15.448Z,39.72
2018-09-30T07:39:44.135Z,39.09
2018-09-30T07:42:12.954Z,39.33
2018-09-30T07:44:42.924Z,39.48
2018-09-30T07:47:11.890Z,37.10
2018-09-30T07:49:40.636Z,34.18
2018-09-30T07:52:09.858Z,33.76
2018-09-30T07:54:38.501Z,34.04
2018-09-30T07:57:07.772Z,35.74
2018-09-30T07:59:36.673Z,35.45
2018-09-30T08:02:07.579Z,37.24
2018-09-30T08:04:36.174Z,36.44
2018-09-30T08:07:05.095Z,36.18
2018-09-30T08:09:33.762Z,35.51
2018-09-30T08:12:02.634Z,34.46
2018-09-30T08:14:32.600Z,32.19
2018-09-30T08:17:01.360Z,31.79
2018-09-30T08:19:31.317Z,33.50
2018-09-30T08:22:00.818Z,33.65
2018-09-30T08:24:29.496Z,33.77
2018-09-30T08:26:58.307Z,35.51
2018-09-30T08:29:27.002Z,37.04
2018-09-30T08:31:55.571Z,37.61
2018-09-30T08:34:24.243Z,39.71
2018-09-30T08:36:53.071Z,42.24
2018-09-30T08:39:21.742Z,41.76
2018-09-30T08:41:50.426Z,42.20
2018-09-30T08:44:19.053Z,42.37
2018-09-30T08:46:47.847Z,42.33
2018-09-30T08:49:16.631Z,41.48
2018-09-30T08:51:46.235Z,43.25
2018-09-30T08:54:14.934Z,45.00
2018-09-30T08:56:45.219Z,45.31
2018-09-30T08:59:14.016Z,44.30
2018-09-30T09:01:43.584Z,42.23
2018-09-30T09:04:12.249Z,43.15
2018-09-30T09:06:40.965Z,43.25
2018-09-30T09:09:11.275Z,41.75
2018-09-30T09:11:39.850Z,42.45
2018-09-30T09:14:08.454Z,41.50
2018-09-30T09:16:37.699Z,41.88
2018-09-30T09:19:06.637Z,42.06
2018-09-30T09:21:35.320Z,42.49
2018-09-30T09:24:04.661Z,42.31
2018-09-30T09:26:33.788Z,42.21
2018-09-30T09:29:02.881Z,42.28
2018-09-30T09:31:31.530Z,43.66
2018-09-30T09:34:00.654Z,42.39
2018-09-30T09:36:29.847Z,42.89
2018-09-30T09:38:58.760Z,42.08
2018-09-30T09:41:28.452Z,43.04
2018-09-30T09:43:57.249Z,43.31
2018-09-30T09:46:26.060Z,43.44
2018-09-30T09:48:54.638Z,43.46
2018-09-30T09:51:23.256Z,43.94
2018-09-30T09:53:51.818Z,42.12
2018-09-30T09:56:20.358Z,42.56
2018-09-30T09:58:48.913Z,43.23
2018-09-30T10:01:17.582Z,43.20
2018-09-30T10:03:46.279Z,42.83
2018-09-30T10:06:14.883Z,41.25
2018-09-30T10:08:43.473Z,41.29
2018-09-30T10:11:12.039Z,42.32
2018-09-30T10:13:40.610Z,42.96
2018-09-30T10:16:09.231Z,43.07
2018-09-30T10:18:37.788Z,42.01
2018-09-30T10:21:06.497Z,41.87
2018-09-30T10:23:35.183Z,42.27
2018-09-30T10:26:03.737Z,41.63
2018-09-30T10:28:32.366Z,40.78
2018-09-30T10:31:00.934Z,41.08
2018-09-30T10:33:29.492Z,41.87
2018-09-30T10:35:58.180Z,42.11
2018-09-30T10:38:27.035Z,40.93
2018-09-30T10:40:55.741Z,40.34
2018-09-30T10:43:24.325Z,41.54
2018-09-30T10:45:52.899Z,40.83
2018-09-30T10:48:21.487Z,41.08
2018-09-30T10:50:50.208Z,41.36
2018-09-30T10:53:18.867Z,40.21
2018-09-30T10:55:47.633Z,39.59
2018-09-30T10:58:16.165Z,38.34
2018-09-30T11:00:44.710Z,39.04
2018-09-30T11:03:13.244Z,38.85
2018-09-30T11:05:41.829Z,37.91
2018-09-30T11:08:10.379Z,39.56
2018-09-30T11:10:39.009Z,38.51
2018-09-30T11:13:07.630Z,37.85
2018-09-30T11:15:36.169Z,38.67
2018-09-30T11:18:04.762Z,38.66
2018-09-30T11:20:33.318Z,39.04
2018-09-30T11:23:01.881Z,38.74
2018-09-30T11:25:30.705Z,37.55
2018-09-30T11:27:59.471Z,37.22
2018-09-30T11:30:28.127Z,36.87
2018-09-30T11:32:56.750Z,36.18
2018-09-30T11:35:25.388Z,37.06
2018-09-30T11:37:54.178Z,36.28
2018-09-30T11:40:22.786Z,36.36
2018-09-30T11:42:51.607Z,37.53
2018-09-30T11:45:20.261Z,37.44
2018-09-30T11:47:49.258Z,37.31
2018-09-30T11:50:17.830Z,37.56
2018-09-30T11:52:46.472Z,37.45
2018-09-30T11:55:17.547Z,37.50
2018-09-30T11:57:46.088Z,37.33
2018-09-30T12:00:14.652Z,37.33
2018-09-30T12:02:43.701Z,38.03
2018-09-30T12:05:12.260Z,38.37
2018-09-30T12:07:40.997Z,37.68
2018-09-30T12:10:09.798Z,37.62
2018-09-30T12:12:38.402Z,38.41
2018-09-30T12:15:07.340Z,37.82
2018-09-30T12:17:35.885Z,37.86
2018-09-30T12:20:04.570Z,37.42
2018-09-30T12:22:33.123Z,38.27
2018-09-30T12:25:01.934Z,39.18
2018-09-30T12:27:30.525Z,37.80
2018-09-30T12:29:59.110Z,37.82
2018-09-30T12:32:27.709Z,38.86
2018-09-30T12:34:56.354Z,40.42
2018-09-30T12:37:25.083Z,38.75
2018-09-30T12:39:53.686Z,39.00
2018-09-30T12:42:22.727Z,40.16
2018-09-30T12:44:51.422Z,39.50
2018-09-30T12:47:20.039Z,37.83
2018-09-30T12:49:48.583Z,37.98
2018-09-30T12:52:17.133Z,37.72
2018-09-30T12:54:45.686Z,37.85
2018-09-30T12:57:14.299Z,38.65
2018-09-30T12:59:43.014Z,40.27
2018-09-30T13:02:11.577Z,37.77
2018-09-30T13:04:40.125Z,37.39
2018-09-30T13:07:08.690Z,37.37
2018-09-30T13:09:37.301Z,38.27
2018-09-30T13:12:05.866Z,38.49
2018-09-30T13:14:34.672Z,38.73
2018-09-30T13:17:03.412Z,37.84
2018-09-30T13:19:32.024Z,38.62
2018-09-30T13:22:00.631Z,38.56
2018-09-30T13:24:29.186Z,39.16
2018-09-30T13:26:57.793Z,38.58
2018-09-30T13:29:26.334Z,37.61
2018-09-30T13:31:54.892Z,37.71
2018-09-30T13:34:23.610Z,38.24
2018-09-30T13:36:52.437Z,38.93
2018-09-30T13:39:20.997Z,37.63
2018-09-30T13:41:49.556Z,37.93
2018-09-30T13:44:18.105Z,38.45
2018-09-30T13:46:46.710Z,37.34
2018-09-30T13:49:15.414Z,37.20
2018-09-30T13:51:44.098Z,37.71
2018-09-30T13:54:12.821Z,38.26
2018-09-30T13:56:41.380Z,37.57
2018-09-30T13:59:09.958Z,38.02
2018-09-30T14:01:38.524Z,38.14
2018-09-30T14:04:07.269Z,38.60
2018-09-30T14:06:35.826Z,38.08
2018-09-30T14:09:06.053Z,38.29
2018-09-30T14:11:34.822Z,37.62
2018-09-30T14:14:03.553Z,37.99
2018-09-30T14:16:32.140Z,38.00
2018-09-30T14:19:00.697Z,38.22
2018-09-30T14:21:29.269Z,38.11
2018-09-30T14:23:57.825Z,38.06
2018-09-30T14:26:26.365Z,38.04
2018-09-30T14:28:55.059Z,39.67
2018-09-30T14:31:23.640Z,38.49
2018-09-30T14:33:52.154Z,38.71
2018-09-30T14:36:20.709Z,38.35
2018-09-30T14:38:49.246Z,38.95
2018-09-30T14:41:17.789Z,38.15
2018-09-30T14:43:46.450Z,38.36
2018-09-30T14:46:15.106Z,38.20
2018-09-30T14:48:43.820Z,38.33
2018-09-30T14:51:12.525Z,38.05
2018-09-30T14:53:41.107Z,38.18
2018-09-30T14:56:09.675Z,37.75
2018-09-30T14:58:38.219Z,37.80
2018-09-30T15:01:07.010Z,37.93
2018-09-30T15:03:35.802Z,38.48
2018-09-30T15:06:04.432Z,38.77
2018-09-30T15:08:33.156Z,38.29
2018-09-30T15:11:01.690Z,38.36
2018-09-30T15:13:30.268Z,37.64
2018-09-30T15:15:58.810Z,37.84
2018-09-30T15:18:27.671Z,38.69
2018-09-30T15:20:56.366Z,38.35
2018-09-30T15:23:25.101Z,38.79
2018-09-30T15:25:53.680Z,38.40
2018-09-30T15:28:22.238Z,38.02
2018-09-30T15:30:51.154Z,39.20
2018-09-30T15:33:19.765Z,39.86
2018-09-30T15:35:48.427Z,39.44
2018-09-30T15:38:17.131Z,39.57
2018-09-30T15:40:46.182Z,39.63
2018-09-30T15:43:14.718Z,40.31
2018-09-30T15:45:43.289Z,39.80
2018-09-30T15:48:11.845Z,41.67
2018-09-30T15:50:40.370Z,40.64
2018-09-30T15:53:09.090Z,41.68
2018-09-30T15:55:37.659Z,41.13
2018-09-30T15:58:06.682Z,41.83
2018-09-30T16:00:35.205Z,41.95
2018-09-30T16:03:04.564Z,41.87
2018-09-30T16:05:33.132Z,41.57
2018-09-30T16:08:01.710Z,42.55
2018-09-30T16:10:30.323Z,42.55
2018-09-30T16:12:59.006Z,42.01
2018-09-30T16:15:27.874Z,42.80
2018-09-30T16:17:56.441Z,42.47
2018-09-30T16:20:25.056Z,42.76
2018-09-30T16:22:53.625Z,42.64
2018-09-30T16:25:22.305Z,43.31
2018-09-30T16:27:50.854Z,43.61
2018-09-30T16:30:19.533Z,43.92
2018-09-30T16:32:48.175Z,43.20
2018-09-30T16:35:17.386Z,44.08
2018-09-30T16:37:46.029Z,44.41
2018-09-30T16:40:14.582Z,44.93
2018-09-30T16:42:43.122Z,45.30
2018-09-30T16:45:11.676Z,44.94
2018-09-30T16:47:40.470Z,45.42
2018-09-30T16:50:09.254Z,45.84
2018-09-30T16:52:38.480Z,45.38
2018-09-30T16:55:08.057Z,45.31
2018-09-30T16:57:36.883Z,45.00
2018-09-30T17:00:06.377Z,45.31
2018-09-30T17:02:36.594Z,46.04
2018-09-30T17:05:05.279Z,45.53
2018-09-30T17:07:33.967Z,45.22
2018-09-30T17:10:02.682Z,45.62
2018-09-30T17:12:31.401Z,46.10
2018-09-30T17:15:00.328Z,46.67
2018-09-30T17:17:29.129Z,46.35
2018-09-30T17:19:57.912Z,46.79
2018-09-30T17:22:26.699Z,46.85
2018-09-30T17:24:56.341Z,46.89
2018-09-30T17:27:25.011Z,47.13
2018-09-30T17:29:53.643Z,46.44
2018-09-30T17:32:22.230Z,46.62
2018-09-30T17:34:50.847Z,47.31
2018-09-30T17:37:19.786Z,47.25
2018-09-30T17:39:48.650Z,46.53
2018-09-30T17:42:17.265Z,46.69
2018-09-30T17:44:45.869Z,48.13
2018-09-30T17:47:14.424Z,48.55
2018-09-30T17:49:43.082Z,49.19
2018-09-30T17:52:11.800Z,49.01
2018-09-30T17:54:40.770Z,49.30
2018-09-30T17:57:09.732Z,48.95
2018-09-30T17:59:38.345Z,49.55
2018-09-30T18:02:07.166Z,50.27
2018-09-30T18:04:37.603Z,50.02
2018-09-30T18:07:06.803Z,49.88
2018-09-30T18:09:35.410Z,50.48
2018-09-30T18:12:04.017Z,49.47
2018-09-30T18:14:33.282Z,49.53
2018-09-30T18:17:02.126Z,49.70
2018-09-30T18:19:30.990Z,49.84
2018-09-30T18:21:59.625Z,50.32
2018-09-30T18:24:28.226Z,49.90
2018-09-30T18:26:56.808Z,50.31
2018-09-30T18:29:25.375Z,50.79
2018-09-30T18:31:54.047Z,50.72
2018-09-30T18:34:22.907Z,50.61
2018-09-30T18:36:51.963Z,50.97
2018-09-30T18:39:20.550Z,51.47
2018-09-30T18:41:49.118Z,51.21
2018-09-30T18:44:17.831Z,51.99
2018-09-30T18:46:46.377Z,51.91
2018-09-30T18:49:15.006Z,52.36
2018-09-30T18:51:43.626Z,52.16
2018-09-30T18:54:12.235Z,52.49
2018-09-30T18:56:40.832Z,53.40
2018-09-30T18:59:09.743Z,53.41
2018-09-30T19:01:38.345Z,53.97
2018-09-30T19:04:07.695Z,54.55
2018-09-30T19:06:36.368Z,54.87
2018-09-30T19:09:06.768Z,55.00
2018-09-30T19:11:35.378Z,55.55
2018-09-30T19:14:04.202Z,55.42
2018-09-30T19:16:33.118Z,55.75
2018-09-30T19:19:01.793Z,56.18
2018-09-30T19:21:30.527Z,55.98
2018-09-30T19:23:59.226Z,56.88
2018-09-30T19:26:27.814Z,56.70
2018-09-30T19:28:56.710Z,57.68
2018-09-30T19:31:25.289Z,57.57
2018-09-30T19:33:54.010Z,57.60
2018-09-30T19:36:22.681Z,58.23
2018-09-30T19:38:51.374Z,58.47
2018-09-30T19:41:19.986Z,58.90
2018-09-30T19:43:48.696Z,59.00
2018-09-30T19:46:17.370Z,59.27
2018-09-30T19:48:46.069Z,59.36
2018-09-30T19:51:14.922Z,59.52
2018-09-30T19:53:43.613Z,60.07
2018-09-30T19:56:12.179Z,59.74
2018-09-30T19:58:40.727Z,60.90
2018-09-30T20:01:09.444Z,60.30
2018-09-30T20:03:38.129Z,60.94
2018-09-30T20:06:06.685Z,60.64
2018-09-30T20:08:35.314Z,60.66
2018-09-30T20:11:04.295Z,61.27
2018-09-30T20:13:32.857Z,61.25
2018-09-30T20:16:01.457Z,61.07
2018-09-30T20:18:30.012Z,60.84
2018-09-30T20:20:58.705Z,60.88
2018-09-30T20:23:27.470Z,60.52
2018-09-30T20:25:56.209Z,61.01
2018-09-30T20:28:26.816Z,60.65
2018-09-30T20:30:55.937Z,61.42
2018-09-30T20:33:24.694Z,60.42
2018-09-30T20:35:53.281Z,60.93
2018-09-30T20:38:21.945Z,60.72
2018-09-30T20:40:50.505Z,61.07
2018-09-30T20:43:19.045Z,61.32
2018-09-30T20:45:47.630Z,61.95
2018-09-30T20:48:16.279Z,61.99
2018-09-30T20:50:45.037Z,61.70
2018-09-30T20:53:13.602Z,61.71
2018-09-30T20:55:42.167Z,62.07
2018-09-30T20:58:10.837Z,63.15
2018-09-30T21:00:39.507Z,63.15
2018-09-30T21:03:08.250Z,63.63
2018-09-30T21:06:53.011Z,63.33
2018-09-30T21:09:22.459Z,63.87
2018-09-30T21:11:51.145Z,64.07
2018-09-30T21:14:19.839Z,64.35
2018-09-30T21:16:49.436Z,63.62
2018-09-30T21:19:18.154Z,64.41
2018-09-30T21:21:47.173Z,64.86
2018-09-30T21:24:15.985Z,64.16
2018-09-30T21:26:44.559Z,64.49
2018-09-30T21:29:13.241Z,64.73
2018-09-30T21:31:41.791Z,64.58
2018-09-30T21:34:10.436Z,64.71
2018-09-30T21:36:39.183Z,65.39
2018-09-30T21:39:09.375Z,65.70
2018-09-30T21:41:38.021Z,65.84
2018-09-30T21:44:06.936Z,65.72
2018-09-30T21:46:35.568Z,66.47
2018-09-30T21:49:04.135Z,67.64
2018-09-30T21:51:32.735Z,67.51
2018-09-30T21:54:01.341Z,69.07
2018-09-30T21:56:29.984Z,68.58
2018-09-30T21:58:58.942Z,69.36
2018-09-30T22:01:28.003Z,69.62
2018-09-30T22:03:56.652Z,70.54
2018-09-30T22:06:25.578Z,70.54
2018-09-30T22:08:54.129Z,70.55
2018-09-30T22:11:22.731Z,70.68
2018-09-30T22:13:52.012Z,70.65
2018-09-30T22:16:20.603Z,70.83
2018-09-30T22:18:49.288Z,71.27
2018-09-30T22:21:18.061Z,72.01
2018-09-30T22:23:47.706Z,71.95
2018-09-30T22:26:16.788Z,72.12
2018-09-30T22:28:45.482Z,72.97
2018-09-30T22:31:14.381Z,72.56
2018-09-30T22:33:43.065Z,73.15
2018-09-30T22:36:11.853Z,74.25
2018-09-30T22:38:40.865Z,74.41
2018-09-30T22:41:10.162Z,74.86
2018-09-30T22:43:38.727Z,75.48
2018-09-30T22:46:07.333Z,76.24
2018-09-30T22:48:35.932Z,75.83
2018-09-30T22:51:04.537Z,76.32
2018-09-30T22:53:33.097Z,77.48
2018-09-30T22:56:01.822Z,77.29
2018-09-30T22:58:30.798Z,78.30
2018-09-30T23:00:59.535Z,78.33
2018-09-30T23:03:29.653Z,79.01
2018-09-30T23:05:58.543Z,78.44
2018-09-30T23:08:27.424Z,79.32
2018-09-30T23:10:56.608Z,78.52
2018-09-30T23:13:25.154Z,78.58
2018-09-30T23:15:54.321Z,78.86
2018-09-30T23:18:23.039Z,79.01
2018-09-30T23:20:51.806Z,78.97
2018-09-30T23:23:20.902Z,78.20
2018-09-30T23:25:49.693Z,77.70
2018-09-30T23:28:19.878Z,77.19
2018-09-30T23:30:48.499Z,76.71
2018-09-30T23:33:17.099Z,77.15
2018-09-30T23:35:45.782Z,76.58
2018-09-30T23:38:14.379Z,77.29
2018-09-30T23:40:43.189Z,76.50
2018-09-30T23:43:12.217Z,76.50
2018-09-30T23:45:40.874Z,76.50
2018-09-30T23:48:09.674Z,75.32
2018-09-30T23:50:38.314Z,74.97
2018-09-30T23:53:06.890Z,75.22
2018-09-30T23:55:35.454Z,75.43
2018-09-30T23:58:10.501Z,74.73
